Terminal Aerodrome Forecast
Issued by NWS Topeka, KS

Home | Current Version | Previous Version | Graphics & Text | Print | Product List | Glossary On
Versions: 1 2 3 4 5 6 7 8 9 10 11 12 13 14 15 16 17 18 19 20 21 22 23
000
FTUS43 KTOP 150351 AAB
TAFTOP
TAF AMD
KTOP 150351Z 1504/1524 10004KT P6SM OVC035
     FM150800 09004KT P6SM OVC027
     FM151100 08005KT 4SM -FZRA BR OVC014
      TEMPO 1513/1517 FZRA BR OVC008=

USA.gov is the U.S. government's official web portal to all federal, state and local government web resources and services.